臺北終端管制區 - 松西席

METAR RCSS 231900Z 08010KT 9999 FEW015 BKN025 21/17 Q1021 NOSIG RMK A3017=

站台狀態:Online
最後更新:2020-02-24 03:30:02